createdAt,value
2019-04-10T00:02:26.046Z,98670.73
2019-04-10T00:04:57.864Z,98679.81
2019-04-10T00:07:29.763Z,98686.73
2019-04-10T00:10:03.472Z,98674.06
2019-04-10T00:12:35.980Z,98676.27
2019-04-10T00:15:09.283Z,98673.52
2019-04-10T00:17:42.930Z,98679.05
2019-04-10T00:20:16.270Z,98685.44
2019-04-10T00:22:48.661Z,98680.39
2019-04-10T00:25:20.939Z,98673.55
2019-04-10T00:27:52.752Z,98674.82
2019-04-10T00:30:25.062Z,98672.16
2019-04-10T00:32:56.853Z,98675.39
2019-04-10T00:35:29.718Z,98677.12
2019-04-10T00:38:01.736Z,98677.45
2019-04-10T00:40:33.465Z,98671.88
2019-04-10T00:43:06.511Z,98674.17
2019-04-10T00:45:38.458Z,98671.38
2019-04-10T00:48:10.377Z,98677.19
2019-04-10T00:50:42.515Z,98681.14
2019-04-10T00:53:14.395Z,98672.38
2019-04-10T00:55:46.195Z,98681.23
2019-04-10T00:58:18.331Z,98675.66
2019-04-10T01:00:50.449Z,98680.14
2019-04-10T01:03:40.689Z,98673.45
2019-04-10T01:06:14.279Z,98671.09
2019-04-10T01:08:45.944Z,98664.69
2019-04-10T01:11:18.990Z,98672.16
2019-04-10T01:13:51.690Z,98670.20
2019-04-10T01:16:23.571Z,98672.25
2019-04-10T01:18:55.523Z,98670.92
2019-04-10T01:21:28.447Z,98680.67
2019-04-10T01:24:01.465Z,98673.08
2019-04-10T01:26:33.255Z,98678.28
2019-04-10T01:29:05.219Z,98676.13
2019-04-10T01:31:37.289Z,98682.16
2019-04-10T01:34:09.469Z,98673.41
2019-04-10T01:36:41.480Z,98678.35
2019-04-10T01:39:15.875Z,98678.61
2019-04-10T01:41:48.059Z,98675.59
2019-04-10T01:44:20.512Z,98675.49
2019-04-10T01:46:52.958Z,98668.00
2019-04-10T01:49:24.702Z,98669.99
2019-04-10T01:51:57.429Z,98665.92
2019-04-10T01:54:29.148Z,98668.94
2019-04-10T01:57:00.853Z,98662.80
2019-04-10T01:59:34.155Z,98656.00
2019-04-10T02:02:07.500Z,98660.31
2019-04-10T02:04:39.624Z,98659.18
2019-04-10T02:07:11.617Z,98664.28
2019-04-10T02:09:43.566Z,98665.13
2019-04-10T02:12:16.660Z,98663.13
2019-04-10T02:14:48.841Z,98657.95
2019-04-10T02:17:20.647Z,98663.16
2019-04-10T02:19:52.239Z,98663.55
2019-04-10T02:22:24.924Z,98660.53
2019-04-10T02:24:57.658Z,98655.02
2019-04-10T02:27:30.109Z,98658.53
2019-04-10T02:30:02.411Z,98663.62
2019-04-10T02:32:34.543Z,98662.91
2019-04-10T02:35:10.548Z,98663.83
2019-04-10T02:37:41.729Z,98663.83
2019-04-10T02:40:15.053Z,98661.54
2019-04-10T02:42:47.444Z,98663.59
2019-04-10T02:45:19.487Z,98657.76
2019-04-10T02:47:52.772Z,98658.66
2019-04-10T02:50:25.268Z,98661.83
2019-04-10T02:52:59.061Z,98662.45
2019-04-10T02:55:31.377Z,98660.06
2019-04-10T02:58:03.146Z,98658.56
2019-04-10T03:00:36.017Z,98665.52
2019-04-10T03:03:09.351Z,98669.19
2019-04-10T03:05:42.609Z,98678.58
2019-04-10T03:08:15.812Z,98675.05
2019-04-10T03:10:53.728Z,98671.68
2019-04-10T03:13:21.856Z,98676.00
2019-04-10T03:15:53.697Z,98676.14
2019-04-10T03:18:25.904Z,98670.59
2019-04-10T03:20:58.448Z,98665.66
2019-04-10T03:23:31.625Z,98669.59
2019-04-10T03:26:03.596Z,98667.44
2019-04-10T03:28:35.546Z,98668.20
2019-04-10T03:31:07.979Z,98675.00
2019-04-10T03:33:47.444Z,98674.24
2019-04-10T03:36:19.096Z,98679.41
2019-04-10T03:38:58.554Z,98674.62
2019-04-10T03:41:24.149Z,98676.25
2019-04-10T03:43:56.405Z,98675.86
2019-04-10T03:46:28.257Z,98676.63
2019-04-10T03:49:01.154Z,98673.22
2019-04-10T03:51:32.988Z,98676.48
2019-04-10T03:54:04.990Z,98672.64
2019-04-10T03:56:38.064Z,98671.48
2019-04-10T03:59:09.796Z,98677.04
2019-04-10T04:01:42.978Z,98669.17
2019-04-10T04:04:17.514Z,98675.06
2019-04-10T04:06:53.603Z,98674.91
2019-04-10T04:09:29.381Z,98682.08
2019-04-10T04:12:02.386Z,98681.41
2019-04-10T04:14:34.688Z,98681.14
2019-04-10T04:17:06.735Z,98688.13
2019-04-10T04:19:38.389Z,98692.68
2019-04-10T04:22:10.526Z,98685.45
2019-04-10T04:24:42.355Z,98684.77
2019-04-10T04:27:15.306Z,98691.05
2019-04-10T04:29:47.529Z,98700.63
2019-04-10T04:32:19.671Z,98704.58
2019-04-10T04:34:52.166Z,98701.39
2019-04-10T04:37:25.769Z,98716.05
2019-04-10T04:39:58.355Z,98709.33
2019-04-10T04:42:30.713Z,98711.22
2019-04-10T04:45:03.087Z,98708.14
2019-04-10T04:47:35.649Z,98713.55
2019-04-10T04:50:07.779Z,98714.27
2019-04-10T04:52:39.548Z,98709.33
2019-04-10T04:55:12.233Z,98704.98
2019-04-10T04:57:44.967Z,98699.34
2019-04-10T05:00:17.452Z,98704.90
2019-04-10T05:02:49.631Z,98708.28
2019-04-10T05:05:21.494Z,98704.51
2019-04-10T05:07:59.273Z,98703.30
2019-04-10T05:10:26.559Z,98706.64
2019-04-10T05:12:58.612Z,98710.47
2019-04-10T05:15:31.094Z,98704.84
2019-04-10T05:18:04.061Z,98698.48
2019-04-10T05:20:44.226Z,98711.95
2019-04-10T05:23:10.273Z,98712.50
2019-04-10T05:25:42.008Z,98716.12
2019-04-10T05:28:13.670Z,98710.61
2019-04-10T05:30:45.522Z,98712.61
2019-04-10T05:33:17.381Z,98721.36
2019-04-10T05:35:49.351Z,98719.06
2019-04-10T05:38:21.509Z,98722.68
2019-04-10T05:40:53.171Z,98727.90
2019-04-10T05:43:26.006Z,98724.80
2019-04-10T05:45:57.601Z,98717.77
2019-04-10T05:48:29.662Z,98717.99
2019-04-10T05:51:05.635Z,98720.59
2019-04-10T05:53:35.143Z,98715.77
2019-04-10T05:56:07.090Z,98712.39
2019-04-10T05:58:39.058Z,98715.28
2019-04-10T06:01:11.543Z,98713.98
2019-04-10T06:03:43.572Z,98716.03
2019-04-10T06:06:15.156Z,98718.88
2019-04-10T06:08:47.058Z,98716.22
2019-04-10T06:11:18.865Z,98714.59
2019-04-10T06:13:50.822Z,98715.95
2019-04-10T06:16:22.479Z,98712.95
2019-04-10T06:18:55.539Z,98720.37
2019-04-10T06:21:28.482Z,98722.70
2019-04-10T06:24:00.412Z,98727.31
2019-04-10T06:26:32.721Z,98728.33
2019-04-10T06:29:06.798Z,98729.77
2019-04-10T06:31:39.074Z,98738.55
2019-04-10T06:34:13.824Z,98739.77
2019-04-10T06:36:44.434Z,98753.44
2019-04-10T06:39:16.609Z,98756.14
2019-04-10T06:41:48.781Z,98751.94
2019-04-10T06:44:21.777Z,98753.25
2019-04-10T06:46:54.975Z,98747.69
2019-04-10T06:49:26.968Z,98740.50
2019-04-10T06:51:59.686Z,98743.72
2019-04-10T06:54:31.451Z,98747.13
2019-04-10T06:57:03.089Z,98750.32
2019-04-10T06:59:34.967Z,98749.53
2019-04-10T07:02:17.707Z,98750.25
2019-04-10T07:04:45.986Z,98752.77
2019-04-10T07:07:18.122Z,98746.08
2019-04-10T07:09:49.602Z,98745.58
2019-04-10T07:12:24.405Z,98750.18
2019-04-10T07:14:58.201Z,98747.77
2019-04-10T07:17:29.439Z,98732.60
2019-04-10T07:20:01.985Z,98738.67
2019-04-10T07:22:33.669Z,98737.27
2019-04-10T07:25:09.307Z,98739.07
2019-04-10T07:27:41.458Z,98735.72
2019-04-10T07:30:14.885Z,98736.03
2019-04-10T07:32:49.012Z,98733.47
2019-04-10T07:35:21.812Z,98732.23
2019-04-10T07:37:56.682Z,98729.27
2019-04-10T07:40:37.165Z,98730.53
2019-04-10T07:43:09.069Z,98728.06
2019-04-10T07:45:41.614Z,98729.42
2019-04-10T07:48:13.358Z,98729.62
2019-04-10T07:50:46.971Z,98741.39
2019-04-10T07:53:18.939Z,98738.02
2019-04-10T07:56:02.321Z,98734.80
2019-04-10T07:58:24.076Z,98731.09
2019-04-10T08:00:56.759Z,98736.98
2019-04-10T08:03:28.848Z,98734.72
2019-04-10T08:06:02.303Z,98733.98
2019-04-10T08:08:34.131Z,98738.64
2019-04-10T08:11:07.166Z,98730.38
2019-04-10T08:13:38.841Z,98734.68
2019-04-10T08:16:10.690Z,98734.09
2019-04-10T08:18:43.474Z,98736.36
2019-04-10T08:21:15.610Z,98728.89
2019-04-10T08:23:48.508Z,98729.74
2019-04-10T08:26:21.349Z,98736.41
2019-04-10T08:28:53.792Z,98731.33
2019-04-10T08:31:25.522Z,98732.74
2019-04-10T08:33:57.178Z,98736.95
2019-04-10T08:36:29.678Z,98732.98
2019-04-10T08:39:02.421Z,98730.70
2019-04-10T08:41:35.138Z,98742.34
2019-04-10T08:44:06.811Z,98738.73
2019-04-10T08:46:38.427Z,98734.50
2019-04-10T08:49:10.281Z,98722.04
2019-04-10T08:51:41.880Z,98727.05
2019-04-10T08:54:14.104Z,98731.75
2019-04-10T08:56:46.980Z,98728.26
2019-04-10T08:59:19.315Z,98733.92
2019-04-10T09:01:50.845Z,98738.50
2019-04-10T09:04:22.463Z,98733.98
2019-04-10T09:06:54.338Z,98738.13
2019-04-10T09:09:26.187Z,98737.28
2019-04-10T09:11:57.946Z,98743.70
2019-04-10T09:14:29.883Z,98738.09
2019-04-10T09:17:02.819Z,98734.52
2019-04-10T09:19:34.663Z,98734.10
2019-04-10T09:22:06.415Z,98729.66
2019-04-10T09:24:38.393Z,98726.95
2019-04-10T09:27:10.956Z,98728.94
2019-04-10T09:29:42.906Z,98720.53
2019-04-10T09:32:14.972Z,98724.41
2019-04-10T09:34:48.122Z,98723.66
2019-04-10T09:37:20.132Z,98725.91
2019-04-10T09:39:53.445Z,98725.44
2019-04-10T09:42:25.634Z,98721.67
2019-04-10T09:44:57.475Z,98721.00
2019-04-10T09:47:30.316Z,98713.05
2019-04-10T09:50:02.409Z,98718.20
2019-04-10T09:52:35.621Z,98713.33
2019-04-10T09:55:08.106Z,98720.02
2019-04-10T09:57:40.665Z,98714.41
2019-04-10T10:00:14.032Z,98710.84
2019-04-10T10:02:47.432Z,98715.69
2019-04-10T10:05:20.258Z,98715.37
2019-04-10T10:07:54.468Z,98713.23
2019-04-10T10:10:25.839Z,98718.03
2019-04-10T10:12:57.552Z,98721.63
2019-04-10T10:15:29.389Z,98718.88
2019-04-10T10:18:01.456Z,98725.77
2019-04-10T10:20:35.614Z,98720.96
2019-04-10T10:23:07.567Z,98721.25
2019-04-10T10:25:39.467Z,98720.20
2019-04-10T10:28:11.848Z,98716.78
2019-04-10T10:30:43.998Z,98713.66
2019-04-10T10:33:15.721Z,98719.36
2019-04-10T10:35:49.503Z,98719.59
2019-04-10T10:38:21.454Z,98714.00
2019-04-10T10:40:53.109Z,98709.84
2019-04-10T10:43:25.179Z,98706.19
2019-04-10T10:45:56.940Z,98711.18
2019-04-10T10:48:29.579Z,98705.70
2019-04-10T10:51:02.427Z,98706.22
2019-04-10T10:53:34.595Z,98699.70
2019-04-10T10:56:06.438Z,98703.97
2019-04-10T10:58:38.075Z,98705.81
2019-04-10T11:01:09.972Z,98703.53
2019-04-10T11:03:42.570Z,98706.48
2019-04-10T11:06:14.966Z,98698.59
2019-04-10T11:08:47.842Z,98700.13
2019-04-10T11:11:20.034Z,98700.95
2019-04-10T11:13:51.739Z,98700.47
2019-04-10T11:16:23.554Z,98701.02
2019-04-10T11:18:55.209Z,98694.31
2019-04-10T11:21:27.452Z,98694.95
2019-04-10T11:24:01.022Z,98697.00
2019-04-10T11:26:33.646Z,98692.84
2019-04-10T11:29:05.713Z,98689.75
2019-04-10T11:31:39.609Z,98694.47
2019-04-10T11:34:11.481Z,98691.50
2019-04-10T11:36:44.055Z,98688.70
2019-04-10T11:39:23.371Z,98692.38
2019-04-10T11:41:50.559Z,98685.33
2019-04-10T11:44:22.298Z,98691.81
2019-04-10T11:46:55.641Z,98684.66
2019-04-10T11:49:29.534Z,98684.66
2019-04-10T11:52:03.111Z,98683.95
2019-04-10T11:54:40.359Z,98681.72
2019-04-10T11:57:09.948Z,98675.51
2019-04-10T11:59:41.257Z,98671.34
2019-04-10T12:02:14.426Z,98676.08
2019-04-10T12:04:53.876Z,98673.52
2019-04-10T12:07:52.639Z,98676.58
2019-04-10T12:12:27.893Z,98672.77
2019-04-10T12:15:01.582Z,98666.91
2019-04-10T12:17:35.998Z,98656.15
2019-04-10T12:20:08.956Z,98664.33
2019-04-10T12:22:40.755Z,98656.69
2019-04-10T12:25:12.940Z,98646.13
2019-04-10T12:27:45.347Z,98652.70
2019-04-10T12:30:17.713Z,98644.92
2019-04-10T12:32:49.369Z,98639.98
2019-04-10T12:35:20.931Z,98640.59
2019-04-10T12:38:02.254Z,98654.76
2019-04-10T12:40:26.669Z,98645.41
2019-04-10T12:42:58.809Z,98642.21
2019-04-10T12:45:30.799Z,98642.27
2019-04-10T12:48:02.652Z,98634.18
2019-04-10T12:50:34.526Z,98640.27
2019-04-10T12:53:07.331Z,98633.06
2019-04-10T12:55:38.973Z,98640.08
2019-04-10T12:58:17.012Z,98633.02
2019-04-10T13:00:44.822Z,98641.78
2019-04-10T13:03:16.798Z,98647.00
2019-04-10T13:05:49.395Z,98640.77
2019-04-10T13:08:28.807Z,98637.55
2019-04-10T13:10:56.082Z,98650.84
2019-04-10T13:13:28.622Z,98644.77
2019-04-10T13:16:01.484Z,98639.34
2019-04-10T13:18:32.967Z,98640.33
2019-04-10T13:21:04.510Z,98638.77
2019-04-10T13:23:37.001Z,98633.38
2019-04-10T13:26:10.895Z,98629.03
2019-04-10T13:28:43.467Z,98630.54
2019-04-10T13:31:15.134Z,98630.55
2019-04-10T13:33:46.941Z,98632.86
2019-04-10T13:36:19.674Z,98632.20
2019-04-10T13:38:51.225Z,98637.20
2019-04-10T13:41:24.105Z,98631.62
2019-04-10T13:43:55.756Z,98628.03
2019-04-10T13:46:28.941Z,98626.91
2019-04-10T13:49:01.869Z,98620.48
2019-04-10T13:51:33.438Z,98626.84
2019-04-10T13:54:06.249Z,98634.66
2019-04-10T13:56:38.025Z,98633.18
2019-04-10T13:59:10.961Z,98639.75
2019-04-10T14:01:43.888Z,98648.77
2019-04-10T14:04:16.658Z,98660.77
2019-04-10T14:06:49.302Z,98676.30
2019-04-10T14:09:34.407Z,98699.59
2019-04-10T14:11:54.435Z,98741.10
2019-04-10T14:14:26.721Z,98735.11
2019-04-10T14:16:59.324Z,98648.31
2019-04-10T14:19:31.869Z,98638.16
2019-04-10T14:22:03.500Z,98659.69
2019-04-10T14:24:42.851Z,98677.16
2019-04-10T14:27:16.266Z,98686.30
2019-04-10T14:29:49.083Z,98658.20
2019-04-10T14:32:25.371Z,98652.14
2019-04-10T14:34:57.119Z,98636.94
2019-04-10T14:37:29.551Z,98638.63
2019-04-10T14:40:02.150Z,98651.86
2019-04-10T14:42:34.895Z,98664.94
2019-04-10T14:45:09.042Z,98685.96
2019-04-10T14:47:41.323Z,98721.98
2019-04-10T14:50:13.685Z,98726.38
2019-04-10T14:52:45.770Z,98731.20
2019-04-10T14:55:20.299Z,98735.06
2019-04-10T14:57:51.028Z,98745.14
2019-04-10T15:00:36.964Z,98732.15
2019-04-10T15:03:08.772Z,98681.63
2019-04-10T15:05:47.789Z,98669.08
2019-04-10T15:08:15.505Z,98659.19
2019-04-10T15:10:47.426Z,98662.14
2019-04-10T15:13:21.236Z,98664.83
2019-04-10T15:15:52.569Z,98666.40
2019-04-10T15:18:24.664Z,98665.95
2019-04-10T15:20:58.571Z,98667.23
2019-04-10T15:23:30.233Z,98662.14
2019-04-10T15:26:02.187Z,98662.53
2019-04-10T15:28:34.028Z,98663.73
2019-04-10T15:31:06.845Z,98670.67
2019-04-10T15:33:39.415Z,98681.64
2019-04-10T15:36:11.578Z,98697.97
2019-04-10T15:38:44.262Z,98702.77
2019-04-10T15:41:16.925Z,98724.81
2019-04-10T15:43:50.159Z,98723.22
2019-04-10T15:46:21.662Z,98740.41
2019-04-10T15:48:53.423Z,98772.03
2019-04-10T15:51:25.274Z,98775.34
2019-04-10T15:53:57.125Z,98781.52
2019-04-10T15:56:29.710Z,98789.67
2019-04-10T15:59:01.370Z,98799.42
2019-04-10T16:01:33.274Z,98806.32
2019-04-10T16:04:05.271Z,98809.66
2019-04-10T16:06:37.589Z,98810.00
2019-04-10T16:09:10.445Z,98815.05
2019-04-10T16:11:47.172Z,98824.61
2019-04-10T16:14:23.304Z,98832.03
2019-04-10T16:17:09.009Z,98844.95
2019-04-10T16:19:51.367Z,98838.71
2019-04-10T16:22:31.209Z,98838.71
2019-04-10T16:25:05.355Z,98849.78
2019-04-10T16:27:41.293Z,98857.63
2019-04-10T16:30:15.960Z,98863.44
2019-04-10T16:32:48.589Z,98874.75
2019-04-10T16:35:21.084Z,98873.01
2019-04-10T16:37:53.800Z,98876.56
2019-04-10T16:40:26.957Z,98867.20
2019-04-10T16:42:59.353Z,98877.35
2019-04-10T16:45:31.196Z,98864.13
2019-04-10T16:48:03.135Z,98858.75
2019-04-10T16:50:36.400Z,98843.05
2019-04-10T16:53:09.627Z,98825.48
2019-04-10T16:55:43.113Z,98811.38
2019-04-10T16:58:15.859Z,98805.77
2019-04-10T17:00:47.749Z,98796.94
2019-04-10T17:03:20.118Z,98806.20
2019-04-10T17:05:53.550Z,98807.16
2019-04-10T17:08:25.287Z,98810.94
2019-04-10T17:10:58.808Z,98804.02
2019-04-10T17:13:30.818Z,98811.07
2019-04-10T17:16:02.593Z,98806.64
2019-04-10T17:18:35.038Z,98805.24
2019-04-10T17:21:06.788Z,98800.70
2019-04-10T17:23:38.700Z,98800.38
2019-04-10T17:26:10.798Z,98794.22
2019-04-10T17:28:42.782Z,98790.78
2019-04-10T17:31:16.138Z,98786.99
2019-04-10T17:33:50.107Z,98791.28
2019-04-10T17:36:22.962Z,98800.02
2019-04-10T17:38:55.228Z,98797.77
2019-04-10T17:41:28.277Z,98800.45
2019-04-10T17:44:02.045Z,98805.97
2019-04-10T17:46:33.628Z,98806.17
2019-04-10T17:49:05.789Z,98805.63
2019-04-10T17:51:38.467Z,98803.91
2019-04-10T17:54:11.777Z,98801.10
2019-04-10T17:56:44.408Z,98800.14
2019-04-10T17:59:16.273Z,98800.98
2019-04-10T18:01:47.906Z,98801.10
2019-04-10T18:04:20.076Z,98800.78
2019-04-10T18:06:52.867Z,98792.58
2019-04-10T18:09:26.108Z,98793.77
2019-04-10T18:12:00.549Z,98795.17
2019-04-10T18:14:31.345Z,98793.23
2019-04-10T18:17:03.101Z,98796.91
2019-04-10T18:19:34.959Z,98791.42
2019-04-10T18:22:06.805Z,98789.81
2019-04-10T18:24:38.376Z,98785.49
2019-04-10T18:27:12.250Z,98783.88
2019-04-10T18:29:45.283Z,98787.67
2019-04-10T18:32:17.920Z,98791.02
2019-04-10T18:34:50.040Z,98775.84
2019-04-10T18:37:24.834Z,98764.92
2019-04-10T18:39:54.943Z,98757.50
2019-04-10T18:42:26.750Z,98755.34
2019-04-10T18:44:59.494Z,98756.31
2019-04-10T18:47:32.308Z,98746.94
2019-04-10T18:50:05.614Z,98750.06
2019-04-10T18:52:37.492Z,98737.89
2019-04-10T18:55:09.279Z,98739.71
2019-04-10T18:57:41.122Z,98736.06
2019-04-10T19:00:15.766Z,98733.25
2019-04-10T19:02:57.077Z,98732.17
2019-04-10T19:05:31.906Z,98728.30
2019-04-10T19:08:03.640Z,98723.45
2019-04-10T19:10:36.774Z,98728.09
2019-04-10T19:13:09.564Z,98731.09
2019-04-10T19:15:41.746Z,98729.70
2019-04-10T19:18:13.539Z,98730.69
2019-04-10T19:20:45.097Z,98729.48
2019-04-10T19:23:17.265Z,98733.34
2019-04-10T19:25:49.181Z,98740.48
2019-04-10T19:28:30.017Z,98745.86
2019-04-10T19:31:12.835Z,98748.88
2019-04-10T19:33:39.420Z,98760.84
2019-04-10T19:36:11.976Z,98761.50
2019-04-10T19:38:43.682Z,98765.50
2019-04-10T19:41:25.210Z,98762.71
2019-04-10T19:43:48.742Z,98763.35
2019-04-10T19:46:21.558Z,98770.02
2019-04-10T19:48:53.606Z,98768.19
2019-04-10T19:51:25.900Z,98764.30
2019-04-10T19:53:57.818Z,98767.52
2019-04-10T19:56:30.678Z,98778.81
2019-04-10T19:59:02.930Z,98775.89
2019-04-10T20:01:34.535Z,98780.83
2019-04-10T20:04:06.471Z,98778.88
2019-04-10T20:06:38.607Z,98784.84
2019-04-10T20:09:10.697Z,98785.41
2019-04-10T20:11:48.633Z,98791.05
2019-04-10T20:14:16.843Z,98781.70
2019-04-10T20:16:49.383Z,98779.55
2019-04-10T20:19:21.066Z,98781.61
2019-04-10T20:21:52.768Z,98790.20
2019-04-10T20:24:25.068Z,98793.39
2019-04-10T20:26:56.901Z,98797.78
2019-04-10T20:29:28.894Z,98810.08
2019-04-10T20:32:01.649Z,98809.52
2019-04-10T20:34:33.696Z,98807.83
2019-04-10T20:37:09.258Z,98804.59
2019-04-10T20:39:39.219Z,98805.58
2019-04-10T20:42:11.007Z,98807.92
2019-04-10T20:44:43.065Z,98809.32
2019-04-10T20:47:15.764Z,98809.89
2019-04-10T20:49:47.935Z,98810.88
2019-04-10T20:52:19.993Z,98816.47
2019-04-10T20:54:51.762Z,98822.59
2019-04-10T20:57:23.781Z,98823.23
2019-04-10T20:59:55.685Z,98841.75
2019-04-10T21:02:28.519Z,98830.00
2019-04-10T21:05:05.787Z,98829.58
2019-04-10T21:07:33.924Z,98826.34
2019-04-10T21:10:08.548Z,98833.08
2019-04-10T21:12:40.314Z,98831.69
2019-04-10T21:15:13.190Z,98841.11
2019-04-10T21:17:44.850Z,98849.44
2019-04-10T21:20:16.717Z,98851.06
2019-04-10T21:22:49.346Z,98847.12
2019-04-10T21:25:21.219Z,98851.91
2019-04-10T21:27:54.655Z,98854.33
2019-04-10T21:30:31.759Z,98847.22
2019-04-10T21:33:12.133Z,98845.78
2019-04-10T21:35:44.157Z,98843.18
2019-04-10T21:38:15.815Z,98849.75
2019-04-10T21:40:47.566Z,98851.91
2019-04-10T21:43:20.281Z,98853.98
2019-04-10T21:45:53.024Z,98859.16
2019-04-10T21:48:24.985Z,98852.17
2019-04-10T21:50:56.847Z,98844.83
2019-04-10T21:53:31.669Z,98856.20
2019-04-10T21:56:02.308Z,98854.30
2019-04-10T21:58:34.529Z,98854.74
2019-04-10T22:01:08.076Z,98860.33
2019-04-10T22:03:39.841Z,98857.98
2019-04-10T22:06:15.685Z,98868.17
2019-04-10T22:08:54.811Z,98861.00
2019-04-10T22:11:26.786Z,98869.09
2019-04-10T22:13:58.742Z,98866.72
2019-04-10T22:16:30.701Z,98869.73
2019-04-10T22:19:03.740Z,98871.48
2019-04-10T22:21:35.549Z,98870.91
2019-04-10T22:24:07.404Z,98875.01
2019-04-10T22:26:44.471Z,98873.61
2019-04-10T22:29:15.530Z,98875.67
2019-04-10T22:31:47.596Z,98873.92
2019-04-10T22:34:19.206Z,98870.40
2019-04-10T22:36:50.800Z,98877.14
2019-04-10T22:39:23.081Z,98877.80
2019-04-10T22:41:54.846Z,98879.96
2019-04-10T22:44:34.748Z,98888.16
2019-04-10T22:47:00.885Z,98891.59
2019-04-10T22:49:32.877Z,98894.48
2019-04-10T22:52:04.740Z,98889.40
2019-04-10T22:54:36.647Z,98893.84
2019-04-10T22:57:10.370Z,98880.79
2019-04-10T22:59:42.485Z,98876.31
2019-04-10T23:02:16.087Z,98878.47
2019-04-10T23:04:47.819Z,98874.02
2019-04-10T23:07:19.878Z,98863.57
2019-04-10T23:09:52.578Z,98867.48
2019-04-10T23:12:24.481Z,98869.77
2019-04-10T23:14:55.968Z,98876.94
2019-04-10T23:17:28.539Z,98879.10
2019-04-10T23:20:00.697Z,98865.35
2019-04-10T23:22:33.494Z,98865.58
2019-04-10T23:25:07.972Z,98872.37
2019-04-10T23:27:39.928Z,98867.77
2019-04-10T23:30:13.490Z,98863.55
2019-04-10T23:32:45.794Z,98867.98
2019-04-10T23:35:19.018Z,98859.98
2019-04-10T23:37:51.097Z,98858.36
2019-04-10T23:40:23.082Z,98856.91
2019-04-10T23:43:05.808Z,98856.65
2019-04-10T23:45:29.459Z,98852.65
2019-04-10T23:48:01.448Z,98857.22
2019-04-10T23:50:34.413Z,98857.47
2019-04-10T23:53:06.553Z,98859.47
2019-04-10T23:55:38.578Z,98854.10
2019-04-10T23:58:10.637Z,98850.61
